Time;durP1;ratioP1;P1;durP2;ratioP2;P2;SDS_P1;SDS_P2;PMS_P1;PMS_P2;Temp;Humidity;BMP_temperature;BMP_pressure;BME280_temperature;BME280_humidity;BME280_pressure;Samples;Min_cycle;Max_cycle;Signal;HPM_P1;HPM_P2
2023/05/27 00:00:03;;;;;;;17.83;5.95;;;10.20;99.90;;;;;;5048096;28;20089;-76
2023/05/27 00:02:29;;;;;;;19.23;6.00;;;10.20;99.90;;;;;;5063952;28;20147;-76
2023/05/27 00:04:55;;;;;;;20.48;5.20;;;10.20;99.90;;;;;;5055209;28;20052;-76
2023/05/27 00:07:20;;;;;;;18.10;5.68;;;10.20;99.90;;;;;;5071614;28;20051;-78
2023/05/27 00:09:46;;;;;;;18.45;4.90;;;10.10;99.90;;;;;;5055564;28;20049;-76
2023/05/27 00:12:12;;;;;;;17.83;5.57;;;10.20;99.90;;;;;;5048590;28;20395;-75
2023/05/27 00:14:37;;;;;;;15.50;5.93;;;10.10;99.90;;;;;;5046483;28;20049;-75
2023/05/27 00:17:03;;;;;;;16.23;5.15;;;10.10;99.90;;;;;;5038538;28;20189;-75
2023/05/27 00:19:30;;;;;;;20.92;6.70;;;10.10;99.90;;;;;;5049944;28;20041;-74
2023/05/27 00:21:56;;;;;;;16.75;5.05;;;10.00;99.90;;;;;;5042404;28;20049;-74
2023/05/27 00:24:22;;;;;;;15.90;5.43;;;10.00;99.90;;;;;;5060487;28;21008;-74
2023/05/27 00:26:48;;;;;;;21.08;4.88;;;10.00;99.90;;;;;;5041202;28;20431;-79
2023/05/27 00:29:16;;;;;;;18.88;6.75;;;10.00;99.90;;;;;;5044959;28;20052;-76
2023/05/27 00:31:42;;;;;;;16.13;4.50;;;10.00;99.90;;;;;;5043529;28;20048;-74
2023/05/27 00:34:07;;;;;;;19.02;4.65;;;10.00;99.90;;;;;;5059157;28;21867;-75
2023/05/27 00:36:33;;;;;;;16.35;5.57;;;10.00;99.90;;;;;;5056529;28;20036;-76
2023/05/27 00:39:00;;;;;;;16.77;4.68;;;10.00;99.90;;;;;;5046305;28;20052;-77
2023/05/27 00:41:29;;;;;;;15.35;4.95;;;10.00;99.90;;;;;;5054895;28;20171;-76
2023/05/27 00:43:56;;;;;;;17.67;5.95;;;9.90;99.90;;;;;;5059172;28;20052;-75
2023/05/27 00:46:22;;;;;;;17.45;6.03;;;9.90;99.90;;;;;;5061457;28;20094;-73
2023/05/27 00:48:48;;;;;;;18.30;4.95;;;9.90;99.90;;;;;;5050968;28;20044;-73
2023/05/27 00:51:15;;;;;;;18.02;5.45;;;9.90;99.90;;;;;;5064725;28;20523;-72
2023/05/27 00:53:43;;;;;;;14.07;4.90;;;9.80;99.90;;;;;;5066168;28;21109;-75
2023/05/27 00:56:09;;;;;;;19.95;4.75;;;9.80;99.90;;;;;;5052490;28;20040;-74
2023/05/27 00:58:38;;;;;;;15.38;5.10;;;9.70;99.90;;;;;;5043559;28;20445;-74
2023/05/27 01:01:05;;;;;;;17.23;6.22;;;9.70;99.90;;;;;;5055216;28;20047;-73
2023/05/27 01:03:35;;;;;;;13.57;4.63;;;9.70;99.90;;;;;;5053455;28;20142;-74
2023/05/27 01:06:25;;;;;;;15.43;5.25;;;9.60;99.90;;;;;;5058184;28;20055;-74
2023/05/27 01:09:06;;;;;;;17.52;5.38;;;9.70;99.90;;;;;;5044142;28;20068;-74
2023/05/27 01:11:39;;;;;;;15.63;5.05;;;9.70;99.90;;;;;;5049240;28;20254;-74
2023/05/27 01:14:10;;;;;;;17.10;5.03;;;9.60;99.90;;;;;;5035101;28;20446;-76
2023/05/27 01:16:39;;;;;;;17.38;5.22;;;9.50;99.90;;;;;;5050883;28;20049;-75
2023/05/27 01:19:12;;;;;;;14.98;5.85;;;9.60;99.90;;;;;;5044904;28;20116;-74
2023/05/27 01:21:39;;;;;;;15.90;5.10;;;9.50;99.90;;;;;;5041647;28;20123;-73
2023/05/27 01:24:05;;;;;;;16.05;4.70;;;9.50;99.90;;;;;;5056233;28;20043;-74
2023/05/27 01:26:31;;;;;;;16.40;4.82;;;9.50;99.90;;;;;;5050226;28;20174;-75
2023/05/27 01:28:57;;;;;;;16.90;6.30;;;9.40;99.90;;;;;;5050052;28;20049;-73
2023/05/27 01:31:49;;;;;;;16.52;5.75;;;9.40;99.90;;;;;;5048078;28;20063;-73
2023/05/27 01:34:21;;;;;;;14.48;5.28;;;9.40;99.90;;;;;;5055449;28;20051;-72
2023/05/27 01:36:51;;;;;;;16.13;5.05;;;9.30;99.90;;;;;;5045725;28;20052;-74
2023/05/27 01:39:17;;;;;;;16.27;5.65;;;9.30;99.90;;;;;;5050140;28;20153;-75
2023/05/27 01:41:43;;;;;;;15.45;6.53;;;9.20;99.90;;;;;;5065317;28;20051;-72
2023/05/27 01:44:10;;;;;;;19.85;5.40;;;9.30;99.90;;;;;;5041716;28;20053;-72
2023/05/27 01:46:36;;;;;;;15.60;5.37;;;9.30;99.90;;;;;;5056317;28;20036;-75
2023/05/27 01:49:02;;;;;;;13.88;5.13;;;9.30;99.90;;;;;;5037057;28;20045;-75
2023/05/27 01:51:28;;;;;;;16.38;5.30;;;9.20;99.90;;;;;;5060877;28;20043;-72
2023/05/27 01:53:53;;;;;;;12.80;5.45;;;9.30;99.90;;;;;;5064085;28;20055;-74
2023/05/27 01:56:19;;;;;;;14.60;5.10;;;9.30;99.90;;;;;;5058585;28;20056;-75
2023/05/27 01:58:45;;;;;;;13.20;5.05;;;9.40;99.90;;;;;;5055651;28;20051;-74
2023/05/27 02:01:13;;;;;;;17.55;5.57;;;9.30;99.90;;;;;;5047736;28;20048;-75
2023/05/27 02:03:39;;;;;;;15.63;5.07;;;9.30;99.90;;;;;;5047885;28;20057;-72
2023/05/27 02:06:05;;;;;;;15.23;5.78;;;9.40;99.90;;;;;;5047965;28;20037;-71
2023/05/27 02:08:30;;;;;;;17.48;6.13;;;9.40;99.90;;;;;;5046325;28;20132;-74
2023/05/27 02:10:56;;;;;;;18.23;5.80;;;9.40;99.90;;;;;;5039482;28;20492;-72
2023/05/27 02:13:22;;;;;;;18.20;6.57;;;9.40;99.90;;;;;;5049846;28;20630;-74
2023/05/27 02:15:47;;;;;;;16.75;5.93;;;9.40;99.90;;;;;;5041299;28;20566;-71
2023/05/27 02:18:13;;;;;;;17.73;5.85;;;9.40;99.90;;;;;;5051211;28;20044;-72
2023/05/27 02:20:39;;;;;;;17.85;6.57;;;9.50;99.90;;;;;;5061401;28;20134;-75
2023/05/27 02:23:07;;;;;;;21.60;6.22;;;9.60;99.90;;;;;;5051218;28;20052;-74
2023/05/27 02:25:33;;;;;;;16.48;6.55;;;9.50;99.90;;;;;;5040182;28;20134;-75
2023/05/27 02:28:02;;;;;;;20.20;6.43;;;9.50;99.90;;;;;;5060233;28;21359;-72
2023/05/27 02:30:29;;;;;;;18.77;5.88;;;9.60;99.90;;;;;;5048292;28;20066;-72
2023/05/27 02:32:55;;;;;;;17.65;6.25;;;9.50;99.90;;;;;;5046802;28;20066;-76
2023/05/27 02:35:21;;;;;;;23.90;5.85;;;9.60;99.90;;;;;;5056600;28;20116;-74
2023/05/27 02:37:46;;;;;;;20.65;6.53;;;9.60;99.90;;;;;;5047455;28;20055;-74
2023/05/27 02:40:22;;;;;;;15.15;6.25;;;9.60;99.90;;;;;;5054212;28;20083;-75
2023/05/27 02:42:48;;;;;;;23.98;6.28;;;9.60;99.90;;;;;;5053298;28;20489;-75
2023/05/27 02:45:14;;;;;;;18.45;5.72;;;9.60;99.90;;;;;;5040216;28;20055;-73
2023/05/27 02:47:42;;;;;;;18.83;6.18;;;9.60;99.90;;;;;;5048747;28;20040;-72
2023/05/27 02:50:08;;;;;;;21.50;7.32;;;9.50;99.90;;;;;;5045383;28;20060;-74
2023/05/27 02:52:37;;;;;;;20.42;6.35;;;9.50;99.90;;;;;;5045925;28;20085;-73
2023/05/27 02:55:03;;;;;;;15.05;6.07;;;9.50;99.90;;;;;;5051876;28;20056;-72
2023/05/27 02:57:35;;;;;;;16.75;6.18;;;9.40;99.90;;;;;;5049069;28;20049;-75
2023/05/27 03:00:01;;;;;;;14.80;6.00;;;9.40;99.90;;;;;;5049833;28;20756;-74
2023/05/27 03:02:27;;;;;;;19.30;6.85;;;9.40;99.90;;;;;;5047227;28;20044;-75
2023/05/27 03:04:55;;;;;;;18.88;6.13;;;9.40;99.90;;;;;;5058956;28;20062;-75
2023/05/27 03:07:21;;;;;;;19.35;5.90;;;9.40;99.90;;;;;;5051780;28;20062;-74
2023/05/27 03:09:46;;;;;;;16.25;6.38;;;9.40;99.90;;;;;;5045846;28;20045;-75
2023/05/27 03:12:12;;;;;;;20.05;5.97;;;9.40;99.90;;;;;;5063634;28;20137;-74
2023/05/27 03:14:38;;;;;;;20.10;7.18;;;9.30;99.90;;;;;;5054435;28;20036;-74
2023/05/27 03:17:03;;;;;;;22.15;6.60;;;9.30;99.90;;;;;;5054881;28;20048;-75
2023/05/27 03:19:29;;;;;;;18.27;6.70;;;9.30;99.90;;;;;;5049554;28;21822;-74
2023/05/27 03:21:55;;;;;;;17.90;6.60;;;9.30;99.90;;;;;;5050784;28;20056;-75
2023/05/27 03:24:21;;;;;;;24.92;7.25;;;9.30;99.90;;;;;;5052896;28;20221;-73
2023/05/27 03:26:47;;;;;;;19.55;6.97;;;9.30;99.90;;;;;;5071037;28;20049;-75
2023/05/27 03:29:12;;;;;;;21.02;6.82;;;9.40;99.90;;;;;;5050392;28;20045;-75
2023/05/27 03:31:38;;;;;;;18.45;7.03;;;9.40;99.90;;;;;;5048993;28;20334;-74
2023/05/27 03:34:04;;;;;;;23.60;7.38;;;9.40;99.90;;;;;;5039291;28;20064;-75
2023/05/27 03:36:29;;;;;;;18.70;6.13;;;9.30;99.90;;;;;;5036763;28;20097;-74
2023/05/27 03:38:56;;;;;;;23.05;6.85;;;9.30;99.90;;;;;;5042505;28;20071;-76
2023/05/27 03:41:25;;;;;;;20.05;7.15;;;9.30;99.90;;;;;;5041745;28;20054;-74
2023/05/27 03:43:50;;;;;;;17.30;6.10;;;9.30;99.90;;;;;;5048280;28;20040;-75
2023/05/27 03:46:16;;;;;;;20.13;6.38;;;9.30;99.90;;;;;;5059440;28;20055;-74
2023/05/27 03:48:42;;;;;;;19.17;6.13;;;9.30;99.90;;;;;;5065898;28;21899;-75
2023/05/27 03:51:07;;;;;;;20.20;6.50;;;9.30;99.90;;;;;;5061246;28;20040;-75
2023/05/27 03:53:33;;;;;;;21.08;7.10;;;9.30;99.90;;;;;;5050895;28;20056;-75
2023/05/27 03:55:59;;;;;;;18.95;6.63;;;9.30;99.90;;;;;;5045827;28;20870;-73
2023/05/27 03:58:24;;;;;;;17.30;6.13;;;9.40;99.90;;;;;;5045759;28;20227;-74
2023/05/27 04:00:51;;;;;;;19.13;6.60;;;9.30;99.90;;;;;;5065206;28;20044;-73
2023/05/27 04:03:17;;;;;;;21.47;6.70;;;9.30;99.90;;;;;;5056572;28;20053;-75
2023/05/27 04:05:42;;;;;;;19.58;7.10;;;9.30;99.90;;;;;;5055584;28;20302;-73
2023/05/27 04:08:08;;;;;;;18.75;6.65;;;9.40;99.90;;;;;;5040796;28;20781;-73
2023/05/27 04:10:33;;;;;;;19.38;6.43;;;9.40;99.90;;;;;;5063222;28;20075;-74
2023/05/27 04:12:59;;;;;;;19.77;6.90;;;9.40;99.90;;;;;;5042825;28;20056;-74
2023/05/27 04:15:26;;;;;;;22.58;6.80;;;9.40;99.90;;;;;;5053788;28;20056;-73
2023/05/27 04:17:51;;;;;;;19.27;6.40;;;9.40;99.90;;;;;;5039823;28;20076;-74
2023/05/27 04:20:17;;;;;;;17.63;6.07;;;9.40;99.90;;;;;;5050211;28;20128;-74
2023/05/27 04:22:43;;;;;;;20.20;7.25;;;9.40;99.90;;;;;;5063717;28;20048;-72
2023/05/27 04:25:09;;;;;;;18.20;6.63;;;9.40;99.90;;;;;;5061874;28;20049;-74
2023/05/27 04:27:36;;;;;;;20.02;7.10;;;9.40;99.90;;;;;;5059476;28;20048;-75
2023/05/27 04:30:03;;;;;;;15.27;6.53;;;9.40;99.90;;;;;;5048186;28;20045;-74
2023/05/27 04:32:32;;;;;;;22.75;6.95;;;9.40;99.90;;;;;;5064214;28;20061;-73
2023/05/27 04:34:59;;;;;;;19.85;7.10;;;9.50;99.90;;;;;;5069120;28;20700;-74
2023/05/27 04:37:27;;;;;;;17.65;6.68;;;9.50;99.90;;;;;;5053561;28;20044;-74
2023/05/27 04:39:56;;;;;;;20.30;7.50;;;9.50;99.90;;;;;;5052117;28;20107;-74
2023/05/27 04:42:23;;;;;;;17.48;6.93;;;9.60;99.90;;;;;;5049005;28;20126;-72
2023/05/27 04:44:50;;;;;;;18.88;8.63;;;9.60;99.90;;;;;;5057893;28;20082;-74
2023/05/27 04:47:16;;;;;;;17.88;6.40;;;9.60;99.90;;;;;;5059901;28;20047;-75
2023/05/27 04:49:43;;;;;;;17.40;6.88;;;9.70;99.90;;;;;;5065572;28;20040;-72
2023/05/27 04:52:09;;;;;;;19.23;6.45;;;9.70;99.90;;;;;;5054179;28;20055;-70
2023/05/27 04:54:35;;;;;;;18.65;6.57;;;9.70;99.90;;;;;;5064308;28;20411;-73
2023/05/27 04:57:01;;;;;;;21.42;7.30;;;9.70;99.90;;;;;;5062080;28;20066;-73
2023/05/27 04:59:45;;;;;;;22.00;7.68;;;9.70;99.90;;;;;;5059772;28;20056;-71
2023/05/27 05:02:21;;;;;;;23.00;7.10;;;9.70;99.90;;;;;;5044350;28;20052;-72
2023/05/27 05:04:47;;;;;;;20.05;7.68;;;9.80;99.90;;;;;;5047873;28;20083;-71
2023/05/27 05:07:13;;;;;;;22.58;7.40;;;9.80;99.90;;;;;;5040700;28;20504;-70
2023/05/27 05:09:39;;;;;;;19.90;7.75;;;9.80;99.90;;;;;;5035608;28;20051;-72
2023/05/27 05:12:06;;;;;;;18.58;7.40;;;9.80;99.90;;;;;;5051244;28;20493;-71
2023/05/27 05:14:31;;;;;;;21.88;8.20;;;9.80;99.90;;;;;;5052349;28;20056;-72
2023/05/27 05:16:57;;;;;;;22.17;7.90;;;9.90;99.90;;;;;;5047453;28;20059;-69
2023/05/27 05:19:23;;;;;;;18.23;7.45;;;10.00;99.90;;;;;;5036656;28;20098;-72
2023/05/27 05:21:48;;;;;;;20.35;7.82;;;10.00;99.90;;;;;;5041518;28;20139;-73
2023/05/27 05:24:14;;;;;;;17.40;7.72;;;10.00;99.90;;;;;;5056381;28;20101;-73
2023/05/27 05:26:40;;;;;;;23.00;8.95;;;10.10;99.90;;;;;;5035113;28;20615;-72
2023/05/27 05:29:05;;;;;;;25.55;10.25;;;10.10;99.90;;;;;;5036988;28;20045;-71
2023/05/27 05:31:31;;;;;;;21.42;9.45;;;10.20;99.90;;;;;;5042841;28;20052;-73
2023/05/27 05:33:57;;;;;;;20.73;9.27;;;10.30;99.90;;;;;;5057980;28;21764;-70
2023/05/27 05:36:23;;;;;;;26.60;10.82;;;10.40;99.90;;;;;;5049012;28;20052;-70
2023/05/27 05:38:49;;;;;;;28.17;9.85;;;10.40;99.90;;;;;;5054935;28;20043;-71
2023/05/27 05:41:15;;;;;;;22.88;9.35;;;10.50;99.90;;;;;;5057913;28;20048;-72
2023/05/27 05:43:40;;;;;;;23.13;7.78;;;10.50;99.90;;;;;;5054319;28;20048;-71
2023/05/27 05:46:07;;;;;;;23.55;8.50;;;10.70;99.90;;;;;;5062117;28;20069;-71
2023/05/27 05:48:32;;;;;;;24.48;8.73;;;10.70;99.90;;;;;;5044953;28;20106;-72
2023/05/27 05:51:00;;;;;;;25.75;8.95;;;10.80;99.90;;;;;;5050464;28;21118;-73
2023/05/27 05:53:26;;;;;;;22.88;7.00;;;10.90;99.90;;;;;;5066441;28;21527;-72
2023/05/27 05:55:52;;;;;;;20.35;8.15;;;11.00;99.90;;;;;;5052633;28;20055;-71
2023/05/27 05:58:17;;;;;;;24.23;7.20;;;11.00;99.90;;;;;;5066005;28;20091;-70
2023/05/27 06:00:43;;;;;;;20.13;6.88;;;11.10;99.90;;;;;;5058509;28;20068;-70
2023/05/27 06:03:12;;;;;;;18.15;7.35;;;11.20;99.90;;;;;;5052792;28;20056;-73
2023/05/27 06:05:38;;;;;;;27.10;7.95;;;11.20;99.90;;;;;;5062843;28;20075;-70
2023/05/27 06:08:04;;;;;;;21.08;6.45;;;11.30;99.90;;;;;;5066734;28;20131;-72
2023/05/27 06:10:29;;;;;;;22.10;8.07;;;11.30;99.90;;;;;;5062069;28;20187;-71
2023/05/27 06:12:55;;;;;;;23.08;7.93;;;11.40;99.90;;;;;;5060180;28;20052;-72
2023/05/27 06:15:21;;;;;;;20.13;7.00;;;11.50;99.90;;;;;;5060641;28;20040;-72
2023/05/27 06:17:47;;;;;;;23.15;7.15;;;11.60;99.90;;;;;;5054126;28;20470;-70
2023/05/27 06:20:13;;;;;;;25.45;7.22;;;11.60;99.90;;;;;;5053577;28;20063;-72
2023/05/27 06:22:38;;;;;;;30.48;7.78;;;11.70;99.90;;;;;;5046906;28;20052;-72
2023/05/27 06:25:05;;;;;;;21.38;7.38;;;11.80;99.90;;;;;;5053759;28;20131;-72
2023/05/27 06:27:30;;;;;;;22.58;6.78;;;11.90;99.90;;;;;;5054983;28;20518;-72
2023/05/27 06:29:56;;;;;;;24.30;7.18;;;12.00;99.90;;;;;;5055137;28;20048;-70
2023/05/27 06:32:22;;;;;;;21.65;7.70;;;12.00;99.90;;;;;;5051059;28;20040;-71
2023/05/27 06:34:48;;;;;;;25.25;7.15;;;12.10;99.90;;;;;;5052628;28;20044;-72
2023/05/27 06:37:14;;;;;;;23.70;7.82;;;12.20;99.90;;;;;;5050568;28;20040;-72
2023/05/27 06:39:39;;;;;;;29.67;7.80;;;12.20;99.90;;;;;;5064628;28;20040;-70
2023/05/27 06:42:05;;;;;;;21.73;6.63;;;12.30;99.90;;;;;;5057521;28;20048;-70
2023/05/27 06:44:31;;;;;;;17.75;6.68;;;12.30;99.90;;;;;;5050890;28;20036;-70
2023/05/27 06:46:56;;;;;;;20.13;7.35;;;12.20;99.90;;;;;;5049845;28;20047;-70
2023/05/27 06:49:25;;;;;;;18.70;7.10;;;12.20;99.90;;;;;;5055202;28;20053;-69
2023/05/27 06:51:50;;;;;;;20.25;6.63;;;12.20;99.90;;;;;;5048583;28;20195;-69
2023/05/27 06:54:16;;;;;;;19.33;6.75;;;12.30;99.90;;;;;;5051763;28;20422;-70
2023/05/27 06:56:42;;;;;;;20.25;6.97;;;12.40;99.90;;;;;;5049438;28;20590;-71
2023/05/27 06:59:07;;;;;;;18.77;6.80;;;12.40;99.90;;;;;;5063872;28;21804;-71
2023/05/27 07:01:33;;;;;;;21.48;6.65;;;12.60;99.90;;;;;;5062814;28;20048;-71
2023/05/27 07:03:59;;;;;;;27.83;6.78;;;12.60;99.90;;;;;;5059143;28;20060;-72
2023/05/27 07:06:24;;;;;;;20.50;6.35;;;12.70;99.90;;;;;;5057187;28;20064;-75
2023/05/27 07:08:50;;;;;;;19.98;6.50;;;12.80;99.90;;;;;;5051662;28;20081;-72
2023/05/27 07:11:16;;;;;;;18.77;6.57;;;12.90;99.90;;;;;;5064776;28;20170;-73
2023/05/27 07:13:42;;;;;;;20.67;6.60;;;13.00;99.90;;;;;;5065793;28;20499;-75
2023/05/27 07:16:07;;;;;;;20.05;6.38;;;13.10;99.90;;;;;;5046347;28;20049;-72
2023/05/27 07:18:33;;;;;;;24.52;7.85;;;13.20;99.90;;;;;;5050803;28;20122;-74
2023/05/27 07:20:58;;;;;;;23.25;6.55;;;13.30;99.90;;;;;;5053717;28;20056;-73
2023/05/27 07:23:24;;;;;;;24.38;7.55;;;13.30;99.90;;;;;;5037682;28;20048;-71
2023/05/27 07:25:50;;;;;;;20.05;7.07;;;13.40;99.90;;;;;;5044303;28;20080;-74
2023/05/27 07:28:16;;;;;;;21.40;6.40;;;13.40;99.90;;;;;;5058070;28;20436;-74
2023/05/27 07:30:42;;;;;;;21.13;6.93;;;13.50;99.90;;;;;;5044272;28;20138;-73
2023/05/27 07:33:08;;;;;;;21.17;6.15;;;13.60;99.90;;;;;;5037740;28;20539;-73
2023/05/27 07:35:33;;;;;;;20.27;6.13;;;13.70;99.90;;;;;;5039433;28;20547;-73
2023/05/27 07:38:00;;;;;;;20.95;6.32;;;13.70;99.90;;;;;;5052508;28;20043;-73
2023/05/27 07:40:25;;;;;;;20.77;7.05;;;13.70;99.90;;;;;;5063806;28;20078;-70
2023/05/27 07:42:51;;;;;;;19.48;5.95;;;13.70;99.90;;;;;;5041475;28;20128;-70
2023/05/27 07:45:17;;;;;;;17.70;5.97;;;13.80;99.90;;;;;;5035420;28;20045;-74
2023/05/27 07:47:43;;;;;;;20.05;6.35;;;13.80;99.90;;;;;;5062047;28;20073;-74
2023/05/27 07:50:09;;;;;;;23.70;6.63;;;13.90;99.90;;;;;;5059049;28;20380;-74
2023/05/27 07:52:35;;;;;;;19.85;6.35;;;14.00;99.90;;;;;;5040974;28;20107;-73
2023/05/27 07:55:00;;;;;;;28.98;6.90;;;14.00;99.90;;;;;;5049402;28;20438;-73
2023/05/27 07:57:26;;;;;;;21.75;6.85;;;14.00;99.90;;;;;;5059251;28;20044;-75
2023/05/27 07:59:52;;;;;;;19.15;6.25;;;14.10;99.90;;;;;;5050982;28;20088;-74
2023/05/27 08:02:17;;;;;;;21.65;6.63;;;14.20;99.90;;;;;;5040429;28;20033;-75
2023/05/27 08:04:43;;;;;;;22.63;6.45;;;14.30;99.90;;;;;;5036125;28;20136;-73
2023/05/27 08:07:09;;;;;;;17.98;6.28;;;14.30;99.90;;;;;;5046609;28;20049;-74
2023/05/27 08:09:35;;;;;;;17.80;6.60;;;14.40;99.90;;;;;;5048014;28;20048;-74
2023/05/27 08:12:01;;;;;;;22.30;7.13;;;14.50;99.90;;;;;;5056835;28;20083;-75
2023/05/27 08:14:27;;;;;;;19.88;6.30;;;14.50;99.90;;;;;;5037096;28;20053;-75
2023/05/27 08:16:54;;;;;;;17.83;6.68;;;14.60;99.90;;;;;;5044039;28;20056;-75
2023/05/27 08:19:19;;;;;;;18.03;6.43;;;14.70;99.90;;;;;;5054554;28;20450;-73
2023/05/27 08:21:45;;;;;;;19.45;6.15;;;14.80;99.90;;;;;;5061144;28;20041;-73
2023/05/27 08:24:12;;;;;;;23.13;6.47;;;14.90;99.90;;;;;;5035673;28;20450;-74
2023/05/27 08:26:38;;;;;;;23.10;6.78;;;14.90;99.90;;;;;;5036762;28;20045;-72
2023/05/27 08:29:05;;;;;;;19.63;6.40;;;14.90;99.90;;;;;;5055751;28;20046;-72
2023/05/27 08:31:30;;;;;;;19.35;6.45;;;15.00;99.90;;;;;;5038116;28;20131;-73
2023/05/27 08:33:56;;;;;;;21.50;6.45;;;15.10;99.90;;;;;;5056382;28;20044;-72
2023/05/27 08:36:22;;;;;;;18.90;6.70;;;15.10;99.90;;;;;;5055855;28;20175;-73
2023/05/27 08:38:48;;;;;;;17.48;6.55;;;15.20;99.90;;;;;;5039741;28;20081;-73
2023/05/27 08:41:15;;;;;;;19.10;6.78;;;15.30;99.90;;;;;;5039482;28;20045;-73
2023/05/27 08:43:42;;;;;;;20.27;7.20;;;15.40;99.90;;;;;;5040799;28;20075;-72
2023/05/27 08:46:09;;;;;;;19.90;6.63;;;15.40;99.90;;;;;;5052946;28;20045;-74
2023/05/27 08:48:34;;;;;;;18.48;6.68;;;15.50;99.90;;;;;;5067273;28;20052;-74
2023/05/27 08:51:01;;;;;;;19.65;6.68;;;15.60;99.90;;;;;;5059618;28;20051;-77
2023/05/27 08:53:28;;;;;;;18.60;6.10;;;15.60;99.90;;;;;;5052095;28;20179;-76
2023/05/27 08:55:57;;;;;;;16.10;6.03;;;15.60;99.90;;;;;;5057549;28;20048;-75
2023/05/27 08:58:23;;;;;;;19.75;6.43;;;15.70;99.90;;;;;;5051829;28;20087;-74
2023/05/27 09:00:49;;;;;;;17.38;6.75;;;15.90;99.90;;;;;;5047143;28;20110;-75
2023/05/27 09:03:16;;;;;;;19.17;6.28;;;16.00;99.90;;;;;;5042859;28;20068;-74
2023/05/27 09:05:42;;;;;;;19.17;7.57;;;16.10;99.90;;;;;;5035055;28;20056;-75
2023/05/27 09:08:07;;;;;;;17.90;6.15;;;16.20;99.90;;;;;;5041692;28;20051;-74
2023/05/27 09:10:41;;;;;;;20.55;6.75;;;16.20;99.90;;;;;;5044414;28;20088;-75
2023/05/27 09:13:08;;;;;;;22.92;7.82;;;16.30;99.90;;;;;;5034707;28;20696;-75
2023/05/27 09:15:35;;;;;;;17.30;6.75;;;16.40;99.90;;;;;;5035787;28;20063;-75
2023/05/27 09:18:02;;;;;;;19.02;6.75;;;16.40;99.90;;;;;;5034472;28;20989;-75
2023/05/27 09:20:29;;;;;;;22.15;6.82;;;16.40;99.90;;;;;;5059891;28;21096;-74
2023/05/27 09:23:00;;;;;;;19.05;6.50;;;16.50;99.90;;;;;;5039613;28;20105;-73
2023/05/27 09:25:27;;;;;;;20.00;6.90;;;16.60;99.90;;;;;;5047369;28;20624;-71
2023/05/27 09:27:56;;;;;;;19.50;6.72;;;16.60;99.90;;;;;;5055425;28;20048;-71
2023/05/27 09:30:24;;;;;;;18.45;6.97;;;16.80;99.90;;;;;;5060387;28;20045;-73
2023/05/27 09:32:50;;;;;;;21.70;6.68;;;16.90;99.90;;;;;;5047153;28;20053;-74
2023/05/27 09:35:17;;;;;;;18.05;6.75;;;16.90;99.90;;;;;;5046810;28;20450;-74
2023/05/27 09:37:45;;;;;;;20.40;6.53;;;16.90;99.90;;;;;;5041299;28;20135;-72
2023/05/27 09:40:14;;;;;;;17.95;6.18;;;17.00;99.90;;;;;;5061259;28;20040;-74
2023/05/27 09:42:44;;;;;;;16.45;6.22;;;17.10;99.90;;;;;;5050610;28;20045;-74
2023/05/27 09:45:20;;;;;;;16.30;5.53;;;17.10;99.90;;;;;;5039250;28;20099;-74
2023/05/27 09:47:48;;;;;;;20.23;6.45;;;17.10;99.90;;;;;;5057447;28;20052;-72
2023/05/27 09:50:15;;;;;;;19.60;6.57;;;17.20;99.90;;;;;;5052346;28;20040;-74
2023/05/27 09:52:41;;;;;;;19.50;6.32;;;17.30;99.90;;;;;;5055168;28;20048;-74
2023/05/27 09:55:09;;;;;;;17.65;6.28;;;17.40;99.90;;;;;;5063401;28;20066;-75
2023/05/27 09:57:35;;;;;;;20.88;6.65;;;17.40;99.90;;;;;;5041512;28;20043;-74
2023/05/27 10:00:15;;;;;;;19.53;6.90;;;17.50;99.90;;;;;;5060425;28;20052;-76
2023/05/27 10:02:42;;;;;;;24.02;7.30;;;17.50;99.90;;;;;;5040039;28;20318;-78
2023/05/27 10:05:10;;;;;;;20.67;6.28;;;17.50;99.90;;;;;;5066896;28;20067;-76
2023/05/27 10:07:41;;;;;;;19.60;6.40;;;17.50;99.90;;;;;;5058251;28;20577;-76
2023/05/27 10:10:20;;;;;;;16.83;6.13;;;17.60;99.90;;;;;;5059251;28;20054;-78
2023/05/27 10:12:49;;;;;;;16.45;5.72;;;17.70;99.90;;;;;;5051861;28;20048;-79
2023/05/27 10:15:27;;;;;;;21.38;6.82;;;17.70;99.90;;;;;;5048528;28;20084;-79
2023/05/27 10:17:55;;;;;;;16.42;5.88;;;17.80;99.90;;;;;;5047623;28;20045;-79
2023/05/27 10:20:31;;;;;;;17.52;6.15;;;17.80;99.90;;;;;;5044236;28;20053;-80
2023/05/27 10:23:13;;;;;;;17.88;5.90;;;17.90;99.90;;;;;;5042510;28;20594;-79
2023/05/27 10:25:53;;;;;;;16.73;5.93;;;17.90;99.90;;;;;;5054089;28;20067;-78
2023/05/27 10:28:40;;;;;;;16.48;6.03;;;18.00;99.90;;;;;;5045557;28;20132;-77
2023/05/27 10:31:15;;;;;;;15.02;6.35;;;18.00;99.90;;;;;;5046966;28;20416;-78
2023/05/27 10:33:48;;;;;;;16.05;5.90;;;18.10;99.90;;;;;;5067380;28;20078;-77
2023/05/27 10:36:16;;;;;;;14.13;5.70;;;18.10;99.90;;;;;;5051882;28;20052;-78
2023/05/27 10:38:43;;;;;;;17.75;5.80;;;18.20;99.90;;;;;;5037578;28;20049;-78
2023/05/27 10:41:09;;;;;;;18.38;5.65;;;18.30;99.90;;;;;;5051250;28;20068;-78
2023/05/27 10:43:35;;;;;;;16.27;6.30;;;18.40;99.70;;;;;;5040506;28;20067;-76
2023/05/27 10:46:09;;;;;;;18.77;6.10;;;18.50;99.30;;;;;;5046237;28;20079;-75
2023/05/27 10:48:37;;;;;;;16.60;5.50;;;18.50;99.00;;;;;;5047598;28;20064;-74
2023/05/27 10:51:02;;;;;;;;;;;18.60;99.50;;;;;;5039878;28;20476;-74
2023/05/27 10:53:29;;;;;;;18.17;6.20;;;18.70;99.90;;;;;;5053143;28;20011;-77
2023/05/27 10:55:58;;;;;;;16.13;6.13;;;18.80;99.20;;;;;;5054516;28;20064;-75
2023/05/27 10:58:24;;;;;;;18.42;6.50;;;18.90;98.30;;;;;;5043588;28;20075;-75
2023/05/27 11:00:51;;;;;;;13.93;5.70;;;19.00;98.20;;;;;;5054216;28;22368;-75
2023/05/27 11:03:27;;;;;;;14.38;5.22;;;18.90;97.20;;;;;;5043709;28;20056;-73
2023/05/27 11:06:16;;;;;;;17.13;5.78;;;19.00;97.20;;;;;;5039695;28;20408;-75
2023/05/27 11:08:42;;;;;;;15.20;5.55;;;19.00;98.40;;;;;;5041128;28;20044;-76
2023/05/27 11:11:10;;;;;;;16.20;6.45;;;19.20;98.00;;;;;;5040676;28;20492;-76
2023/05/27 11:13:43;;;;;;;16.98;6.25;;;19.30;97.80;;;;;;5061117;28;20037;-75
2023/05/27 11:16:10;;;;;;;17.00;6.00;;;19.40;97.30;;;;;;5072788;28;20052;-76
2023/05/27 11:18:43;;;;;;;14.67;5.50;;;19.40;97.40;;;;;;5052296;28;20466;-76
2023/05/27 11:21:11;;;;;;;15.48;5.80;;;19.40;96.90;;;;;;5052443;28;20048;-76
2023/05/27 11:23:43;;;;;;;16.60;5.78;;;19.50;97.00;;;;;;5040819;28;20065;-76
2023/05/27 11:26:22;;;;;;;13.35;5.50;;;19.50;96.50;;;;;;5052156;28;20048;-76
2023/05/27 11:28:54;;;;;;;16.27;5.60;;;19.60;96.10;;;;;;5050983;28;20047;-76
2023/05/27 11:31:21;;;;;;;14.63;5.00;;;19.70;95.30;;;;;;5051673;28;20093;-74
2023/05/27 11:33:50;;;;;;;16.48;5.65;;;19.70;95.10;;;;;;5045839;28;20109;-74
2023/05/27 11:36:16;;;;;;;16.10;5.80;;;19.80;95.70;;;;;;5056290;28;20055;-75
2023/05/27 11:38:48;;;;;;;17.17;6.13;;;19.90;95.90;;;;;;5054975;28;20052;-74
2023/05/27 11:41:14;;;;;;;15.85;5.97;;;20.00;96.00;;;;;;5052139;28;20067;-74
2023/05/27 11:43:51;;;;;;;14.77;5.68;;;20.10;95.20;;;;;;5063433;28;20048;-74
2023/05/27 11:46:17;;;;;;;15.98;6.05;;;20.20;94.30;;;;;;5038763;28;20111;-72
2023/05/27 11:48:43;;;;;;;19.33;6.07;;;20.10;94.20;;;;;;5055111;28;20972;-72
2023/05/27 11:51:10;;;;;;;18.00;6.33;;;20.00;93.80;;;;;;5061264;28;20110;-73
2023/05/27 11:53:48;;;;;;;18.35;5.50;;;20.00;94.20;;;;;;5045030;28;20055;-73
2023/05/27 11:56:15;;;;;;;17.45;5.80;;;20.10;94.30;;;;;;5039517;28;20404;-74
2023/05/27 11:58:41;;;;;;;17.58;6.47;;;20.20;94.20;;;;;;5054252;28;20060;-74
2023/05/27 12:01:07;;;;;;;16.00;5.68;;;20.30;94.10;;;;;;5057000;28;20040;-72
2023/05/27 12:03:34;;;;;;;17.80;6.10;;;20.30;93.30;;;;;;5046880;28;20488;-73
2023/05/27 12:05:59;;;;;;;16.15;5.95;;;20.30;93.50;;;;;;5056938;28;20052;-73
2023/05/27 12:08:25;;;;;;;15.68;5.03;;;20.30;92.90;;;;;;5045754;28;20044;-73
2023/05/27 12:10:53;;;;;;;16.08;6.47;;;20.30;93.40;;;;;;5064677;28;20087;-73
2023/05/27 12:13:21;;;;;;;15.82;5.80;;;20.40;93.30;;;;;;5056439;28;20040;-74
2023/05/27 12:15:47;;;;;;;15.25;6.00;;;20.60;93.10;;;;;;5052956;28;20925;-72
2023/05/27 12:18:13;;;;;;;14.00;5.30;;;20.60;93.80;;;;;;5043700;28;20045;-72
2023/05/27 12:20:39;;;;;;;16.73;5.55;;;20.70;92.90;;;;;;5041017;28;20053;-73
2023/05/27 12:23:05;;;;;;;15.43;6.30;;;20.70;92.60;;;;;;5057473;28;20090;-72
2023/05/27 12:25:30;;;;;;;16.85;5.72;;;20.70;92.20;;;;;;5053046;28;20048;-72
2023/05/27 12:27:56;;;;;;;15.40;5.60;;;20.80;91.90;;;;;;5052853;28;20040;-75
2023/05/27 12:30:22;;;;;;;12.75;5.20;;;20.80;91.60;;;;;;5054074;28;20098;-73
2023/05/27 12:32:47;;;;;;;14.82;5.60;;;20.90;91.90;;;;;;5053097;28;20064;-73
2023/05/27 12:35:13;;;;;;;17.05;5.53;;;21.10;92.50;;;;;;5038387;28;20052;-72
2023/05/27 12:37:40;;;;;;;17.00;5.97;;;21.20;92.60;;;;;;5053371;28;20060;-74
2023/05/27 12:40:09;;;;;;;15.32;5.45;;;21.30;92.50;;;;;;5051972;28;20044;-73